Agua Nueva, TX

2:16 AM CDT on April 18, 2015 (GMT -0500)
Buena Vista Windmill | | Change Station
CLOSE
Current Station
Personal Weather Station
Location: Rio Grande City, TX
Elevation: 551 ft
Nearby Weather Stations

Elev 551 ft 26.78 °N, 98.81 °W | Updated 11 minutes ago

Overcast
Overcast
68.1 °F
Feels Like 68.1 °F
N
0.0
Wind Variable Wind from ENE
Gusts 2.0 mph

Today
High -- | Low -- °F
--% Chance of Precip.
Yesterday
High -- | Low -- °F
Precip. -- in
7:07 AM 8:00 PM
Waning Crescent, 0% visible
Pressure 29.86 in
Visibility 1.5 miles
Clouds
Dew Point 68 °F
Humidity 98%
Rainfall 0.00 in
Snow Depth Not available.
UV Not available.
Pollen 8.10 out of 12
Air Quality Not available.
Flu Activity Local Activity
METAR KHBV 180635Z AUTO 04003KT 1 1/2SM BR 20/20 A2986 RMK AO2 T02010195

More Conditions Fewer Conditions

Pressure 29.86 in
Visibility 1.5 miles
Clouds
Dew Point 68 °F
Humidity 98%
Rainfall 0.00 in
Snow Depth Not available.
UV Not available.
Pollen 8.10 out of 12
Air Quality Not available.
Flu Activity Local Activity
METAR KHBV 180635Z AUTO 04003KT 1 1/2SM BR 20/20 A2986 RMK AO2 T02010195

More Conditions Fewer Conditions

10-Day Weather Forecast

Almanac

Astronomy

Apr. 18, 2015 Rise Set
Actual Time
Civil Twilight
Nautical Twilight
Astronomical Twilight
Moon
Length of Visible Light
Length of Day
Tomorrow will be .
, % of the Moon is Illuminated

Today's Extremes

State Highs State Lows

Community

WunderPhotos

Upload Photos

1,814,341 photos uploaded!

WunderBlogs® & News

Nearby

Air Quality

  Air Quality AQ Index Pollutant
Not available.

Snow Depth

Station Depth Elevation

Earthquake Activity

City Distance Mag. Time & Date
Minimum magnitude displayed is 2.5.

Coastal Water Temperatures

Place Temperature

Stations

Nearby Weather Stations

Station Location Temp. Windchill Dew Point Humidity Wind Precip. Elev Updated Type